To NAV CANADA Home Page Login to a new session Search on AWWS site Disclaimer Vers la page française équivalente Tips FAQ What's new on the site To the Forecasts and Observations / NOTAM section To "File a Flight Plan" website Publications and other links Update of the User's profile FIC Telephone Numbers My Weather Data Folder Route Weather Data Regional Weather Data Local Weather Data To the Forecasts and Observations / NOTAM section
Request Generated 02/17/2019 at 01:24:31 UTC . Weather information available at that time is displayed.


Go to a specific product

Save this request - Inactive

METAR/TAF

OTTAWA/MACDONALD-CARTIER INTL/ON    

METAR CYOW 170100Z 28007KT 15SM SKC M09/M14 A3008 RMK SLP197=
METAR CYOW 170000Z 29011KT 15SM FEW030 M08/M14 A3007 RMK SC1 SLP192=
METAR CYOW 162300Z 28011KT 15SM FEW030 M07/M14 A3003 RMK SC1 SC TR SLP180=

TAF CYOW 162344Z 1700/1724 28010KT P6SM FEW030
BECMG 1701/1703 33008KT
FM170600 34008KT P6SM SKC
FM172100 33005KT P6SM BKN160
RMK NXT FCST BY 170300Z=

OTTAWA/GATINEAU/QC    

METAR CYND 170100Z 30006KT 15SM FEW030 M10/M15 A3010 RMK SC1 SC TR SLP198=
METAR CYND 170000Z 29005KT 15SM FEW035 M09/M14 A3008 RMK SC1 SC TR SLP193=
METAR CYND 162300Z 33010KT 15SM FEW040 M06/M14 A3004 RMK SC2 SLP179=

TAF CYND 162344Z 1700/1702 31008KT P6SM FEW040
RMK NXT FCST WILL BE ISSUED AT 171345Z=


GRAPHICAL FA CLOUDS & WEATHER FORECASTS
To the Product Selector
Graphical FA gfacn33      

GRAPHICAL FA ICING, TURBULENCE & FREEZING LEVEL FORECASTS
To the Product Selector
Graphical FA gfacn33      

Your time UTC time
Weather data provided by Environment Canada and NAV CANADA